Time;durP1;ratioP1;P1;durP2;ratioP2;P2;SDS_P1;SDS_P2;PMS_P1;PMS_P2;Temp;Humidity;BMP_temperature;BMP_pressure;BME280_temperature;BME280_humidity;BME280_pressure;Samples;Min_cycle;Max_cycle;Signal;HPM_P1;HPM_P2
2021/12/15 00:01:02;;;;;;;1.67;1.57;;;7.10;99.90;;;;;;4961217;28;20200;-57
2021/12/15 00:03:30;;;;;;;2.83;2.10;;;7.10;99.90;;;;;;4960110;28;20286;-57
2021/12/15 00:05:57;;;;;;;5.73;3.50;;;7.20;99.90;;;;;;4958470;28;20193;-59
2021/12/15 00:08:25;;;;;;;4.73;2.90;;;7.20;99.90;;;;;;4958046;28;20216;-58
2021/12/15 00:10:52;;;;;;;8.03;3.60;;;7.20;99.90;;;;;;4934839;28;20221;-58
2021/12/15 00:13:22;;;;;;;7.67;3.97;;;7.20;99.90;;;;;;4957060;28;20219;-58
2021/12/15 00:15:52;;;;;;;6.40;3.97;;;7.10;99.90;;;;;;4947197;28;20213;-58
2021/12/15 00:18:20;;;;;;;6.73;4.00;;;7.10;99.90;;;;;;4954747;28;20208;-58
2021/12/15 00:20:48;;;;;;;7.03;3.60;;;7.10;99.90;;;;;;4956473;28;20315;-58
2021/12/15 00:23:15;;;;;;;4.77;3.33;;;7.10;99.90;;;;;;4955871;28;20748;-57
2021/12/15 00:25:44;;;;;;;5.70;3.40;;;7.10;99.90;;;;;;4953375;28;20242;-58
2021/12/15 00:28:12;;;;;;;5.57;3.30;;;7.10;99.90;;;;;;4954402;28;20602;-59
2021/12/15 00:30:40;;;;;;;5.73;3.37;;;7.10;99.90;;;;;;4952808;28;20220;-58
2021/12/15 00:33:08;;;;;;;6.43;3.20;;;7.10;99.90;;;;;;4941133;28;20216;-59
2021/12/15 00:35:37;;;;;;;4.27;2.73;;;7.10;99.90;;;;;;4965785;28;20227;-58
2021/12/15 00:38:05;;;;;;;11.77;4.80;;;7.10;99.90;;;;;;4965097;28;20271;-58
2021/12/15 00:40:33;;;;;;;5.63;3.27;;;7.10;99.90;;;;;;4947365;28;20211;-58
2021/12/15 00:43:02;;;;;;;7.10;3.30;;;7.00;99.90;;;;;;4950684;28;20239;-59
2021/12/15 00:45:29;;;;;;;6.17;3.67;;;7.00;99.90;;;;;;4966288;28;20642;-58
2021/12/15 00:47:56;;;;;;;10.53;4.60;;;7.00;99.90;;;;;;4960345;28;20203;-59
2021/12/15 00:50:30;;;;;;;7.57;3.40;;;7.00;99.90;;;;;;4966595;28;20600;-57
2021/12/15 00:53:00;;;;;;;5.93;3.60;;;6.90;99.90;;;;;;4942520;28;20199;-58
2021/12/15 00:55:28;;;;;;;10.33;4.00;;;6.90;99.90;;;;;;4953844;28;20211;-57
2021/12/15 00:57:56;;;;;;;10.40;4.53;;;6.90;99.90;;;;;;4955059;29;20231;-57
2021/12/15 01:00:28;;;;;;;6.13;4.00;;;6.90;99.90;;;;;;4937260;29;20635;-57
2021/12/15 01:02:55;;;;;;;7.43;3.67;;;6.80;99.90;;;;;;4953646;29;20230;-57
2021/12/15 01:05:26;;;;;;;3.13;2.63;;;6.80;99.90;;;;;;4954557;29;20211;-58
2021/12/15 01:07:54;;;;;;;7.20;3.70;;;6.80;99.90;;;;;;4953482;29;20223;-58
2021/12/15 01:10:32;;;;;;;8.77;4.67;;;6.90;99.90;;;;;;4953124;29;20217;-58
2021/12/15 01:21:17;;;;;;;8.17;4.67;;;6.90;99.90;;;;;;4936990;29;20254;-56
2021/12/15 01:23:44;;;;;;;7.83;4.57;;;6.80;99.90;;;;;;4953259;29;20222;-58
2021/12/15 01:26:15;;;;;;;7.87;4.07;;;6.80;99.90;;;;;;4951924;29;20208;-58
2021/12/15 01:28:42;;;;;;;4.23;2.90;;;6.70;99.90;;;;;;4954520;29;20232;-58
2021/12/15 01:31:10;;;;;;;5.10;3.30;;;6.70;99.90;;;;;;4936305;29;20228;-57
2021/12/15 01:33:38;;;;;;;7.87;4.10;;;6.70;99.90;;;;;;4954405;29;20247;-58
2021/12/15 01:36:08;;;;;;;4.13;3.07;;;6.80;99.90;;;;;;4953543;29;20227;-58
2021/12/15 01:38:37;;;;;;;3.93;3.10;;;6.70;99.90;;;;;;4954951;28;20199;-58
2021/12/15 01:41:05;;;;;;;3.50;2.90;;;6.70;99.90;;;;;;4961728;28;20384;-58
2021/12/15 01:43:49;;;;;;;4.90;3.37;;;6.80;99.90;;;;;;4968293;28;20206;-58
2021/12/15 01:49:10;;;;;;;4.97;3.73;;;6.70;99.90;;;;;;4928524;28;20242;-58
2021/12/15 01:51:37;;;;;;;5.37;2.67;;;6.70;99.90;;;;;;4956055;28;20547;-57
2021/12/15 01:54:05;;;;;;;3.77;2.80;;;6.70;99.90;;;;;;4969859;28;20228;-59
2021/12/15 01:56:33;;;;;;;2.30;2.10;;;6.60;99.90;;;;;;4967740;28;20199;-58
2021/12/15 01:59:02;;;;;;;5.20;2.70;;;6.60;99.90;;;;;;4959489;28;20201;-58
2021/12/15 02:01:30;;;;;;;5.40;3.10;;;6.60;99.90;;;;;;4955388;28;20232;-58
2021/12/15 02:03:58;;;;;;;2.40;2.20;;;6.60;99.90;;;;;;4946134;28;20210;-58
2021/12/15 02:06:27;;;;;;;2.63;2.27;;;6.50;99.90;;;;;;4960509;28;20228;-58
2021/12/15 02:08:56;;;;;;;4.50;2.93;;;6.50;99.90;;;;;;4953547;29;20234;-58
2021/12/15 02:11:24;;;;;;;5.57;2.90;;;6.50;99.90;;;;;;4952038;29;20245;-58
2021/12/15 02:13:52;;;;;;;6.70;3.07;;;6.50;99.90;;;;;;4949966;29;20309;-59
2021/12/15 02:16:21;;;;;;;3.93;2.87;;;6.50;99.90;;;;;;4935895;28;20220;-57
2021/12/15 02:18:48;;;;;;;4.67;3.07;;;6.40;99.90;;;;;;4948292;28;20708;-57
2021/12/15 02:21:19;;;;;;;2.87;2.57;;;6.40;99.90;;;;;;4940235;29;20288;-57
2021/12/15 02:23:52;;;;;;;2.90;2.20;;;6.40;99.90;;;;;;4943729;29;20221;-57
2021/12/15 02:26:24;;;;;;;4.27;2.10;;;6.40;99.90;;;;;;4943992;29;20310;-59
2021/12/15 02:28:55;;;;;;;2.73;2.10;;;6.50;99.90;;;;;;4934070;29;20399;-60
2021/12/15 02:31:38;;;;;;;2.33;1.90;;;6.50;99.90;;;;;;4953066;29;20216;-60
2021/12/15 02:34:20;;;;;;;4.43;3.40;;;6.50;99.90;;;;;;4942112;29;20282;-60
2021/12/15 02:37:16;;;;;;;3.97;2.60;;;6.50;99.90;;;;;;4942193;28;20751;-57
2021/12/15 02:39:46;;;;;;;2.70;2.07;;;6.50;99.90;;;;;;4949296;28;20224;-60
2021/12/15 02:42:13;;;;;;;2.47;2.27;;;6.40;99.90;;;;;;4946414;28;20198;-58
2021/12/15 02:44:43;;;;;;;4.07;2.33;;;6.50;99.90;;;;;;4963539;28;20292;-57
2021/12/15 02:47:12;;;;;;;8.87;3.77;;;6.50;99.90;;;;;;4952943;29;20197;-58
2021/12/15 02:49:40;;;;;;;4.53;3.17;;;6.50;99.90;;;;;;4955026;28;20239;-57
2021/12/15 02:52:09;;;;;;;5.67;3.17;;;6.50;99.90;;;;;;4955841;28;20217;-57
2021/12/15 02:54:37;;;;;;;3.60;2.33;;;6.40;99.90;;;;;;4975797;28;20515;-58
2021/12/15 02:57:10;;;;;;;4.80;2.80;;;6.50;99.90;;;;;;4960569;28;20214;-57
2021/12/15 02:59:48;;;;;;;4.67;2.63;;;6.50;99.90;;;;;;4942498;28;20221;-57
2021/12/15 03:02:34;;;;;;;4.07;2.70;;;6.50;99.90;;;;;;4948386;29;20201;-57
2021/12/15 03:05:07;;;;;;;4.17;2.83;;;6.50;99.90;;;;;;4948438;29;20221;-58
2021/12/15 03:07:43;;;;;;;6.73;3.27;;;6.50;99.90;;;;;;4953098;29;20248;-57
2021/12/15 03:15:36;;;;;;;4.57;3.20;;;6.40;99.90;;;;;;4951998;29;20212;-58
2021/12/15 03:18:08;;;;;;;3.70;2.70;;;6.30;99.90;;;;;;4935345;29;20247;-57
2021/12/15 03:20:46;;;;;;;3.20;2.70;;;6.30;99.90;;;;;;4952128;29;20203;-58
2021/12/15 03:23:19;;;;;;;2.53;2.33;;;6.30;99.90;;;;;;4952695;28;20656;-58
2021/12/15 03:25:46;;;;;;;3.23;2.40;;;6.30;99.90;;;;;;4949807;29;20193;-58
2021/12/15 03:34:09;;;;;;;3.27;2.60;;;6.30;99.90;;;;;;4945116;29;20227;-58
2021/12/15 03:37:05;;;;;;;3.97;2.83;;;6.30;99.90;;;;;;4951542;29;20438;-58
2021/12/15 03:39:40;;;;;;;3.70;2.70;;;6.30;99.90;;;;;;4951582;28;20270;-58
2021/12/15 03:42:10;;;;;;;2.30;2.03;;;6.20;99.90;;;;;;4951635;28;20193;-56
2021/12/15 03:44:39;;;;;;;2.50;2.30;;;6.20;99.90;;;;;;4956646;28;20202;-58
2021/12/15 03:47:09;;;;;;;2.53;2.20;;;6.20;99.90;;;;;;4965514;28;20517;-58
2021/12/15 03:49:37;;;;;;;1.70;1.60;;;6.20;99.90;;;;;;4956198;28;20740;-59
2021/12/15 03:52:04;;;;;;;1.67;1.57;;;6.30;99.90;;;;;;4954470;28;20751;-59
2021/12/15 03:54:33;;;;;;;1.93;1.63;;;6.30;99.90;;;;;;4952070;28;20602;-58
2021/12/15 03:57:00;;;;;;;1.80;1.70;;;6.30;99.90;;;;;;4951517;28;20207;-59
2021/12/15 03:59:28;;;;;;;2.77;2.43;;;6.30;99.90;;;;;;4958118;28;20192;-59
2021/12/15 04:01:56;;;;;;;3.77;2.37;;;6.40;99.90;;;;;;4961806;28;20206;-58
2021/12/15 04:04:23;;;;;;;4.83;2.73;;;6.40;99.90;;;;;;4962755;28;20263;-59
2021/12/15 04:06:51;;;;;;;3.83;1.83;;;6.40;99.90;;;;;;4954102;28;20247;-58
2021/12/15 04:09:18;;;;;;;2.20;2.00;;;6.40;99.90;;;;;;4960239;28;20699;-59
2021/12/15 04:11:47;;;;;;;2.40;2.10;;;6.40;99.90;;;;;;4944605;28;20223;-58
2021/12/15 04:14:21;;;;;;;2.73;2.33;;;6.40;99.90;;;;;;4962029;28;20674;-58
2021/12/15 04:17:01;;;;;;;2.03;1.83;;;6.40;99.90;;;;;;4965354;28;20200;-58
2021/12/15 04:19:29;;;;;;;2.10;1.70;;;6.50;99.90;;;;;;4958471;28;20288;-58
2021/12/15 04:21:57;;;;;;;2.53;1.80;;;6.50;99.90;;;;;;4962003;28;20659;-58
2021/12/15 04:24:26;;;;;;;2.03;1.80;;;6.50;99.90;;;;;;4964719;28;20209;-58
2021/12/15 04:26:57;;;;;;;1.73;1.63;;;6.50;99.90;;;;;;4954027;28;20200;-58
2021/12/15 04:29:27;;;;;;;3.17;2.60;;;6.50;99.90;;;;;;4957887;28;20191;-58
2021/12/15 04:31:57;;;;;;;2.73;2.30;;;6.50;99.90;;;;;;4951649;28;20221;-57
2021/12/15 04:34:25;;;;;;;2.33;2.10;;;6.50;99.90;;;;;;4957756;28;20242;-58
2021/12/15 04:36:53;;;;;;;1.90;1.80;;;6.40;99.90;;;;;;4957867;28;20214;-58
2021/12/15 04:39:23;;;;;;;2.40;1.97;;;6.40;99.90;;;;;;4970004;28;20205;-58
2021/12/15 04:41:52;;;;;;;1.97;1.50;;;6.50;99.90;;;;;;4947944;28;20201;-59
2021/12/15 04:44:24;;;;;;;1.50;1.40;;;6.50;99.90;;;;;;4964235;28;20235;-59
2021/12/15 04:47:00;;;;;;;1.40;1.30;;;6.50;99.90;;;;;;4963166;28;20612;-59
2021/12/15 04:49:30;;;;;;;1.70;1.60;;;6.50;99.90;;;;;;4969132;28;20685;-59
2021/12/15 04:51:57;;;;;;;1.90;1.80;;;6.50;99.90;;;;;;4954422;28;20221;-59
2021/12/15 04:54:26;;;;;;;2.67;2.20;;;6.60;99.90;;;;;;4968473;28;20664;-58
2021/12/15 04:56:53;;;;;;;2.27;1.70;;;6.60;99.90;;;;;;4962408;28;20318;-59
2021/12/15 04:59:22;;;;;;;1.40;1.30;;;6.50;99.90;;;;;;4969039;28;20585;-58
2021/12/15 05:01:50;;;;;;;2.20;2.00;;;6.50;99.90;;;;;;4960088;28;20275;-59
2021/12/15 05:04:17;;;;;;;3.37;2.40;;;6.60;99.90;;;;;;4951473;29;20200;-58
2021/12/15 05:06:45;;;;;;;2.57;2.20;;;6.60;99.90;;;;;;4950766;29;20195;-59
2021/12/15 05:09:14;;;;;;;3.10;2.00;;;6.60;99.90;;;;;;4953787;28;20210;-59
2021/12/15 05:11:41;;;;;;;1.83;1.73;;;6.50;99.90;;;;;;4956425;28;20231;-58
2021/12/15 05:14:08;;;;;;;2.20;1.97;;;6.50;99.90;;;;;;4952808;28;20281;-58
2021/12/15 05:16:37;;;;;;;2.10;1.90;;;6.50;99.90;;;;;;4952283;28;20210;-59
2021/12/15 05:19:04;;;;;;;2.00;1.70;;;6.50;99.90;;;;;;4957986;28;20204;-58
2021/12/15 05:21:32;;;;;;;1.67;1.57;;;6.50;99.90;;;;;;4943381;29;20571;-58
2021/12/15 05:24:08;;;;;;;2.10;1.90;;;6.50;99.90;;;;;;4945842;28;20570;-58
2021/12/15 05:26:35;;;;;;;1.50;1.40;;;6.50;99.90;;;;;;4963317;28;20197;-59
2021/12/15 05:29:02;;;;;;;1.70;1.60;;;6.50;99.90;;;;;;4958838;28;20197;-59
2021/12/15 05:31:29;;;;;;;1.90;1.60;;;6.50;99.90;;;;;;4955235;28;20587;-58
2021/12/15 05:33:58;;;;;;;1.40;1.30;;;6.60;99.90;;;;;;4964186;28;20196;-58
2021/12/15 05:36:25;;;;;;;1.20;1.10;;;6.60;99.90;;;;;;4954173;29;20268;-59
2021/12/15 05:38:52;;;;;;;1.30;1.20;;;6.60;99.90;;;;;;4948946;29;20526;-59
2021/12/15 05:41:21;;;;;;;1.60;1.50;;;6.60;99.90;;;;;;4965596;28;20194;-59
2021/12/15 05:43:48;;;;;;;1.87;1.77;;;6.60;99.90;;;;;;4967960;28;20664;-59
2021/12/15 05:46:15;;;;;;;1.40;1.30;;;6.70;99.90;;;;;;4967514;28;20201;-59
2021/12/15 05:48:43;;;;;;;1.67;1.57;;;6.70;99.90;;;;;;4970007;28;20252;-59
2021/12/15 05:51:11;;;;;;;1.57;1.47;;;6.70;99.90;;;;;;4963857;28;20214;-59
2021/12/15 05:53:38;;;;;;;1.50;1.40;;;6.70;99.90;;;;;;4968004;28;20199;-59
2021/12/15 05:56:06;;;;;;;1.90;1.70;;;6.70;99.90;;;;;;4958368;28;20205;-59
2021/12/15 05:58:33;;;;;;;2.03;1.80;;;6.70;99.90;;;;;;4954448;28;20669;-59
2021/12/15 06:01:01;;;;;;;1.73;1.50;;;6.70;99.90;;;;;;4940954;28;20228;-59
2021/12/15 06:03:28;;;;;;;2.37;1.80;;;6.70;99.90;;;;;;4964434;28;20299;-58
2021/12/15 06:05:55;;;;;;;1.80;1.70;;;6.70;99.90;;;;;;4958804;28;20264;-59
2021/12/15 06:08:24;;;;;;;1.60;1.50;;;6.60;99.90;;;;;;4963172;28;20220;-59
2021/12/15 06:10:51;;;;;;;1.57;1.37;;;6.60;99.90;;;;;;4953490;28;20563;-57
2021/12/15 06:13:22;;;;;;;1.40;1.30;;;6.60;99.90;;;;;;4960114;28;20200;-58
2021/12/15 06:15:49;;;;;;;3.10;1.87;;;6.60;99.90;;;;;;4952292;28;20201;-58
2021/12/15 06:18:22;;;;;;;3.30;1.87;;;6.60;99.90;;;;;;4958357;28;20203;-57
2021/12/15 06:20:51;;;;;;;4.07;2.20;;;6.60;99.90;;;;;;4954905;28;20193;-57
2021/12/15 06:23:19;;;;;;;7.40;3.33;;;6.50;99.90;;;;;;4946384;28;20207;-58
2021/12/15 06:25:51;;;;;;;5.67;3.17;;;6.60;99.90;;;;;;4963937;28;20201;-58
2021/12/15 06:28:19;;;;;;;3.43;2.50;;;6.60;99.90;;;;;;4969678;28;20231;-57
2021/12/15 06:30:46;;;;;;;5.33;2.63;;;6.60;99.90;;;;;;4963493;28;20236;-57
2021/12/15 06:33:14;;;;;;;4.00;2.33;;;6.60;99.90;;;;;;4961995;28;20223;-57
2021/12/15 06:35:51;;;;;;;3.17;2.37;;;6.60;99.90;;;;;;4958116;28;20211;-57
2021/12/15 06:38:19;;;;;;;3.47;2.17;;;6.60;99.90;;;;;;4955219;28;20193;-58
2021/12/15 06:40:47;;;;;;;4.53;2.30;;;6.60;99.90;;;;;;4956835;28;20203;-59
2021/12/15 06:43:15;;;;;;;3.70;2.60;;;6.60;99.90;;;;;;4971658;28;20220;-59
2021/12/15 06:45:56;;;;;;;3.17;2.30;;;6.60;99.90;;;;;;4969370;28;20273;-59
2021/12/15 06:59:24;;;;;;;3.87;2.47;;;6.70;99.90;;;;;;4952845;28;20203;-59
2021/12/15 07:01:52;;;;;;;3.77;2.77;;;6.70;99.90;;;;;;4953667;28;20532;-60
2021/12/15 07:04:19;;;;;;;6.87;3.47;;;6.70;99.90;;;;;;4953422;29;20215;-59
2021/12/15 07:06:48;;;;;;;3.50;2.77;;;6.70;99.90;;;;;;4950194;29;20211;-59
2021/12/15 07:09:16;;;;;;;7.37;4.07;;;6.70;99.90;;;;;;4949838;29;20233;-57
2021/12/15 07:11:44;;;;;;;5.67;3.87;;;6.70;99.90;;;;;;4948083;29;20693;-58
2021/12/15 07:14:12;;;;;;;15.03;7.27;;;6.70;99.90;;;;;;4950099;29;20200;-59
2021/12/15 07:16:43;;;;;;;10.97;5.50;;;6.70;99.90;;;;;;4950087;29;20208;-59
2021/12/15 07:19:18;;;;;;;13.27;6.87;;;6.70;99.90;;;;;;4951002;29;20194;-59
2021/12/15 07:21:54;;;;;;;11.13;6.00;;;6.70;99.90;;;;;;4953831;28;20244;-59
2021/12/15 07:24:21;;;;;;;10.30;6.17;;;6.80;99.90;;;;;;4964644;28;20577;-59
2021/12/15 07:26:50;;;;;;;11.40;5.30;;;6.70;99.90;;;;;;4958079;28;20199;-59
2021/12/15 07:29:19;;;;;;;7.77;5.13;;;6.80;99.90;;;;;;4959646;28;20654;-59
2021/12/15 07:31:46;;;;;;;14.67;7.60;;;6.80;99.90;;;;;;4955584;28;20706;-59
2021/12/15 07:34:13;;;;;;;14.97;7.57;;;6.80;99.90;;;;;;4961665;28;20204;-61
2021/12/15 07:36:40;;;;;;;13.17;6.47;;;6.80;99.90;;;;;;4964294;28;20208;-57
2021/12/15 07:39:10;;;;;;;16.60;7.83;;;6.80;99.90;;;;;;4952410;28;20592;-58
2021/12/15 07:41:50;;;;;;;14.33;6.77;;;6.50;99.90;;;;;;4946265;28;20212;-57
2021/12/15 07:44:20;;;;;;;13.67;7.53;;;6.80;99.90;;;;;;4958023;28;20560;-57
2021/12/15 07:46:52;;;;;;;13.90;7.33;;;6.80;99.90;;;;;;4939624;28;20254;-57
2021/12/15 07:49:19;;;;;;;14.33;7.37;;;6.70;99.90;;;;;;4938499;28;20596;-57
2021/12/15 07:51:47;;;;;;;16.90;8.50;;;6.70;99.90;;;;;;4950933;28;20217;-59
2021/12/15 07:54:16;;;;;;;13.57;7.07;;;6.60;99.90;;;;;;4955645;28;20206;-59
2021/12/15 07:56:43;;;;;;;15.37;7.27;;;6.60;99.90;;;;;;4953365;28;20256;-59
2021/12/15 07:59:11;;;;;;;15.03;7.80;;;6.60;99.90;;;;;;4936227;28;20616;-58
2021/12/15 08:01:39;;;;;;;16.33;7.93;;;6.70;99.90;;;;;;4954969;28;20201;-59
2021/12/15 08:04:07;;;;;;;19.23;8.77;;;6.70;99.90;;;;;;4957593;28;20628;-59
2021/12/15 08:06:34;;;;;;;15.43;7.90;;;6.70;99.90;;;;;;4950986;28;20200;-58
2021/12/15 08:09:02;;;;;;;14.67;7.97;;;6.70;99.90;;;;;;4951925;28;20207;-58
2021/12/15 08:11:29;;;;;;;14.37;7.53;;;6.70;99.90;;;;;;4949878;28;20196;-58
2021/12/15 08:13:57;;;;;;;11.53;5.87;;;6.70;99.90;;;;;;4949033;28;20215;-58
2021/12/15 08:16:24;;;;;;;13.13;7.37;;;6.70;99.90;;;;;;4948403;28;20197;-59
2021/12/15 08:18:53;;;;;;;13.60;7.50;;;6.70;99.90;;;;;;4948897;28;20203;-58
2021/12/15 08:21:20;;;;;;;15.87;8.33;;;6.80;99.90;;;;;;4953010;28;20251;-58
2021/12/15 08:23:47;;;;;;;19.53;9.87;;;6.80;99.90;;;;;;4957332;28;20204;-58
2021/12/15 08:26:14;;;;;;;18.53;9.47;;;6.80;99.90;;;;;;4968725;28;20547;-58
2021/12/15 08:28:42;;;;;;;15.33;8.13;;;6.80;99.90;;;;;;4963164;28;20223;-58
2021/12/15 08:31:09;;;;;;;16.73;8.53;;;6.80;99.90;;;;;;4958547;28;20200;-58
2021/12/15 08:33:37;;;;;;;16.63;8.17;;;6.80;99.90;;;;;;4956682;28;20209;-60
2021/12/15 08:36:08;;;;;;;18.23;8.50;;;6.90;99.90;;;;;;4962747;28;20317;-59
2021/12/15 08:38:38;;;;;;;12.27;7.00;;;6.90;99.90;;;;;;4956551;28;20367;-60
2021/12/15 08:41:08;;;;;;;11.63;6.50;;;6.90;99.90;;;;;;4957728;28;20206;-59
2021/12/15 08:43:36;;;;;;;13.20;7.27;;;6.90;99.90;;;;;;4966998;28;20653;-59
2021/12/15 08:46:06;;;;;;;8.73;5.33;;;6.90;99.90;;;;;;4948253;29;20236;-58
2021/12/15 08:48:35;;;;;;;12.50;6.53;;;7.00;99.90;;;;;;4948334;29;20244;-59
2021/12/15 08:51:03;;;;;;;18.10;8.33;;;7.00;99.90;;;;;;4948092;29;20646;-58
2021/12/15 08:53:32;;;;;;;18.07;8.27;;;7.00;99.90;;;;;;4947257;29;20221;-58
2021/12/15 08:55:59;;;;;;;15.67;8.17;;;7.00;99.90;;;;;;4946533;29;20201;-58
2021/12/15 08:58:27;;;;;;;22.37;9.90;;;7.10;99.90;;;;;;4950133;28;20216;-58
2021/12/15 09:00:57;;;;;;;24.93;11.03;;;7.10;99.90;;;;;;4952571;29;20225;-57
2021/12/15 09:03:26;;;;;;;25.90;10.60;;;7.10;99.90;;;;;;4952562;29;20207;-58
2021/12/15 09:05:56;;;;;;;16.50;8.37;;;7.00;99.90;;;;;;4934424;29;20205;-60
2021/12/15 09:08:24;;;;;;;16.47;8.13;;;7.00;99.90;;;;;;4934901;29;20204;-58
2021/12/15 09:10:58;;;;;;;23.03;10.57;;;7.00;99.90;;;;;;4950112;28;20670;-59
2021/12/15 09:13:29;;;;;;;16.30;8.63;;;7.10;99.90;;;;;;4943274;29;20523;-58
2021/12/15 09:15:58;;;;;;;32.60;13.83;;;7.10;99.90;;;;;;4951042;29;20651;-59
2021/12/15 09:18:25;;;;;;;25.47;11.13;;;7.10;99.90;;;;;;4952472;29;20334;-59
2021/12/15 09:20:52;;;;;;;28.77;12.20;;;7.10;99.90;;;;;;4951471;29;20208;-59
2021/12/15 09:23:19;;;;;;;27.53;10.13;;;7.10;99.90;;;;;;4952451;28;20208;-59
2021/12/15 09:25:48;;;;;;;33.50;13.63;;;7.10;99.90;;;;;;4957417;28;20220;-60
2021/12/15 09:28:19;;;;;;;38.37;13.33;;;7.10;99.90;;;;;;4960830;28;20193;-60
2021/12/15 09:30:47;;;;;;;26.40;12.03;;;7.10;99.90;;;;;;4958889;28;20275;-60
2021/12/15 09:33:18;;;;;;;23.57;10.43;;;7.20;99.90;;;;;;4961876;28;20724;-59
2021/12/15 09:35:45;;;;;;;35.67;13.07;;;7.20;99.90;;;;;;4954870;28;20197;-60
2021/12/15 09:38:14;;;;;;;23.90;10.77;;;7.20;99.90;;;;;;4959549;28;20288;-59
2021/12/15 09:40:41;;;;;;;30.33;11.40;;;7.20;99.90;;;;;;4935090;28;20234;-60
2021/12/15 09:43:09;;;;;;;27.33;10.83;;;7.20;99.90;;;;;;4962539;28;20274;-58
2021/12/15 09:45:47;;;;;;;21.00;9.00;;;7.30;99.90;;;;;;4966178;28;20204;-59
2021/12/15 10:02:25;;;;;;;22.53;10.20;;;7.50;99.90;;;;;;4958175;28;20208;-58
2021/12/15 10:05:03;;;;;;;30.23;11.87;;;7.60;99.90;;;;;;4940918;28;20624;-59
2021/12/15 10:18:55;;;;;;;15.73;7.23;;;7.70;99.90;;;;;;4954973;28;20289;-59
2021/12/15 10:21:26;;;;;;;25.47;11.30;;;7.70;99.90;;;;;;4953753;28;20204;-59
2021/12/15 10:23:53;;;;;;;28.67;13.07;;;7.70;99.90;;;;;;4954508;28;20249;-59
2021/12/15 10:26:22;;;;;;;17.87;8.90;;;7.70;99.90;;;;;;4966590;28;20678;-60
2021/12/15 10:28:52;;;;;;;14.23;7.47;;;7.70;99.90;;;;;;4964268;28;20196;-59
2021/12/15 10:31:23;;;;;;;20.90;9.17;;;7.70;99.90;;;;;;4951911;28;20197;-59
2021/12/15 10:33:55;;;;;;;24.27;10.50;;;7.80;99.90;;;;;;4953264;28;20219;-60
2021/12/15 10:36:25;;;;;;;19.57;8.97;;;7.80;99.90;;;;;;4962842;28;20248;-58
2021/12/15 10:38:54;;;;;;;15.50;8.20;;;7.80;99.90;;;;;;4952723;28;20193;-59
2021/12/15 10:41:22;;;;;;;35.97;13.57;;;7.80;99.90;;;;;;4952827;28;20577;-59
2021/12/15 10:43:53;;;;;;;28.63;13.43;;;7.90;99.90;;;;;;4954949;28;20213;-59
2021/12/15 10:46:23;;;;;;;27.70;12.40;;;7.90;99.90;;;;;;4966194;28;20535;-59
2021/12/15 10:48:54;;;;;;;28.57;12.50;;;7.90;99.90;;;;;;4953996;28;20233;-58
2021/12/15 10:51:40;;;;;;;24.60;10.17;;;8.00;99.90;;;;;;4957466;28;20693;-59
2021/12/15 10:54:11;;;;;;;17.47;8.37;;;8.00;99.90;;;;;;4954534;28;20208;-59
2021/12/15 10:56:40;;;;;;;28.97;12.83;;;8.00;99.90;;;;;;4947868;28;20697;-57
2021/12/15 10:59:10;;;;;;;30.10;12.50;;;8.10;99.90;;;;;;4953531;28;20201;-58
2021/12/15 11:01:50;;;;;;;20.77;10.27;;;8.10;99.90;;;;;;4953736;28;20205;-58
2021/12/15 11:04:39;;;;;;;22.27;10.43;;;8.10;99.90;;;;;;4952216;28;20195;-59
2021/12/15 11:07:19;;;;;;;19.60;9.50;;;8.10;99.90;;;;;;4951376;28;20307;-59
2021/12/15 11:09:49;;;;;;;17.13;9.73;;;8.10;99.90;;;;;;4949146;28;20223;-59
2021/12/15 11:12:23;;;;;;;25.20;12.20;;;8.20;99.90;;;;;;4943308;28;20566;-59
2021/12/15 11:14:54;;;;;;;24.77;10.80;;;8.20;99.90;;;;;;4968238;28;20636;-59
2021/12/15 11:17:23;;;;;;;20.20;10.27;;;8.20;99.90;;;;;;4956030;28;20201;-60
2021/12/15 11:20:02;;;;;;;18.70;10.07;;;8.20;99.90;;;;;;4949701;28;20299;-59
2021/12/15 11:22:49;;;;;;;27.60;11.47;;;8.30;99.90;;;;;;4958797;28;20224;-59
2021/12/15 11:25:43;;;;;;;20.60;9.33;;;8.30;99.90;;;;;;4927028;28;20277;-60
2021/12/15 11:28:15;;;;;;;25.60;12.47;;;8.30;99.90;;;;;;4950287;28;20193;-59
2021/12/15 11:30:46;;;;;;;22.13;10.80;;;8.30;99.90;;;;;;4966755;28;20200;-60
2021/12/15 11:33:17;;;;;;;18.77;9.90;;;8.30;99.90;;;;;;4967707;28;20231;-59
2021/12/15 11:35:50;;;;;;;19.13;10.27;;;8.40;99.90;;;;;;4967663;28;20468;-60
2021/12/15 11:38:21;;;;;;;23.23;11.50;;;8.40;99.90;;;;;;4961281;28;20607;-59
2021/12/15 11:41:00;;;;;;;23.70;11.53;;;8.40;99.90;;;;;;4953770;28;20200;-59
2021/12/15 11:43:29;;;;;;;23.03;11.00;;;8.40;99.90;;;;;;4959163;28;20283;-59
2021/12/15 11:45:57;;;;;;;20.50;9.97;;;8.40;99.90;;;;;;4952615;28;20228;-58
2021/12/15 11:48:26;;;;;;;19.43;10.70;;;8.40;99.90;;;;;;4953151;28;20296;-58
2021/12/15 11:50:57;;;;;;;25.07;11.70;;;8.50;99.90;;;;;;4963558;28;20201;-59
2021/12/15 11:53:33;;;;;;;23.23;11.43;;;8.50;99.90;;;;;;4948831;28;20210;-59
2021/12/15 11:56:24;;;;;;;20.20;10.13;;;8.50;99.90;;;;;;4952015;28;20576;-58
2021/12/15 11:58:55;;;;;;;18.20;9.17;;;8.50;99.90;;;;;;4953817;28;20197;-59
2021/12/15 12:02:01;;;;;;;14.63;7.17;;;8.50;99.90;;;;;;4951699;28;20635;-58
2021/12/15 12:04:33;;;;;;;25.23;11.77;;;8.50;99.90;;;;;;4889625;29;20197;-59
2021/12/15 12:07:20;;;;;;;17.53;9.10;;;8.60;99.90;;;;;;4950421;28;20223;-59
2021/12/15 12:09:52;;;;;;;20.80;10.97;;;8.60;99.90;;;;;;4953466;28;20534;-59
2021/12/15 12:12:24;;;;;;;23.73;11.27;;;8.60;99.90;;;;;;4963187;28;20200;-59
2021/12/15 12:14:51;;;;;;;25.07;11.90;;;8.60;99.90;;;;;;4965764;28;20693;-60
2021/12/15 12:17:22;;;;;;;20.67;10.50;;;8.60;99.90;;;;;;4961279;28;20246;-60
2021/12/15 12:19:53;;;;;;;18.47;10.43;;;8.60;99.90;;;;;;4950249;28;20451;-59
2021/12/15 12:22:23;;;;;;;20.70;10.10;;;8.70;99.90;;;;;;4954454;28;20197;-59
2021/12/15 12:24:54;;;;;;;29.27;13.33;;;8.60;99.90;;;;;;4947470;28;20200;-58
2021/12/15 12:27:23;;;;;;;22.97;11.57;;;8.70;99.90;;;;;;4960664;28;20197;-59
2021/12/15 12:29:52;;;;;;;21.63;10.87;;;8.60;99.90;;;;;;4951325;28;20233;-58
2021/12/15 12:32:20;;;;;;;24.83;12.63;;;8.70;99.90;;;;;;4966604;28;20654;-58
2021/12/15 12:34:48;;;;;;;27.17;12.97;;;8.70;99.90;;;;;;4966151;28;20218;-59
2021/12/15 12:37:16;;;;;;;23.77;12.57;;;8.70;99.90;;;;;;4960729;28;20685;-58
2021/12/15 12:39:53;;;;;;;24.00;12.00;;;8.70;99.90;;;;;;4960331;28;20200;-58
2021/12/15 12:42:34;;;;;;;21.43;11.23;;;8.70;99.90;;;;;;4964146;28;20201;-58
2021/12/15 12:45:16;;;;;;;18.47;9.67;;;8.70;99.90;;;;;;4950065;28;20224;-58
2021/12/15 12:47:59;;;;;;;35.83;14.77;;;8.70;99.90;;;;;;4968005;28;20231;-57
2021/12/15 12:51:04;;;;;;;17.50;9.03;;;8.70;99.90;;;;;;4970401;28;20319;-58
2021/12/15 12:59:31;;;;;;;16.77;9.73;;;8.80;99.90;;;;;;4968119;28;20742;-59
2021/12/15 13:02:00;;;;;;;21.10;11.23;;;8.80;99.90;;;;;;4965724;28;20575;-58
2021/12/15 13:04:39;;;;;;;18.00;8.80;;;8.80;99.90;;;;;;4959784;28;20237;-58
2021/12/15 13:07:06;;;;;;;10.30;6.90;;;8.80;99.90;;;;;;4949145;28;20611;-58
2021/12/15 13:09:47;;;;;;;33.10;16.40;;;8.80;99.90;;;;;;4960190;28;20269;-58
2021/12/15 13:12:26;;;;;;;32.53;15.40;;;8.80;99.90;;;;;;4961953;28;20554;-58
2021/12/15 13:14:56;;;;;;;28.70;14.70;;;8.80;99.90;;;;;;4957462;28;20601;-58
2021/12/15 13:17:28;;;;;;;21.50;11.07;;;8.80;99.90;;;;;;4941741;28;20217;-58
2021/12/15 13:19:58;;;;;;;27.73;12.67;;;8.80;99.90;;;;;;4952695;28;20227;-58
2021/12/15 13:22:38;;;;;;;23.37;11.40;;;8.80;99.90;;;;;;4953274;28;20196;-59
2021/12/15 13:30:54;;;;;;;22.10;10.00;;;8.90;99.90;;;;;;4936558;28;20220;-59
2021/12/15 13:33:43;;;;;;;13.73;7.53;;;8.90;99.90;;;;;;4940815;29;20276;-61
2021/12/15 13:36:13;;;;;;;13.37;7.33;;;8.90;99.90;;;;;;4932223;29;20219;-58
2021/12/15 13:38:44;;;;;;;8.00;5.43;;;9.00;99.90;;;;;;4952966;28;20208;-59
2021/12/15 13:41:24;;;;;;;24.93;12.47;;;9.00;99.90;;;;;;4957807;28;20194;-59
2021/12/15 13:44:06;;;;;;;22.40;11.10;;;9.00;99.90;;;;;;4950402;28;20197;-59
2021/12/15 13:46:44;;;;;;;27.67;12.93;;;9.00;99.90;;;;;;4968543;28;20207;-59
2021/12/15 13:49:29;;;;;;;26.90;13.27;;;9.00;99.90;;;;;;4962861;28;20249;-59
2021/12/15 13:52:10;;;;;;;30.57;15.00;;;9.10;99.90;;;;;;4952355;28;20212;-58
2021/12/15 13:54:58;;;;;;;27.93;13.37;;;9.20;99.90;;;;;;4953978;28;20210;-58
2021/12/15 13:57:34;;;;;;;18.87;10.50;;;9.20;99.90;;;;;;4979773;28;20214;-58
2021/12/15 14:00:13;;;;;;;15.80;9.03;;;9.20;99.90;;;;;;4967086;28;20684;-59
2021/12/15 14:02:42;;;;;;;19.10;9.83;;;9.20;99.90;;;;;;4961904;28;20254;-58
2021/12/15 14:05:24;;;;;;;23.17;12.07;;;9.10;99.90;;;;;;4963567;28;20268;-58
2021/12/15 14:07:54;;;;;;;22.57;11.50;;;9.30;99.90;;;;;;4965421;28;20216;-59
2021/12/15 14:10:41;;;;;;;23.47;12.13;;;9.30;99.90;;;;;;4963582;28;20295;-58
2021/12/15 14:13:09;;;;;;;24.13;13.20;;;9.30;99.90;;;;;;4940554;28;20225;-57
2021/12/15 14:15:53;;;;;;;26.77;12.30;;;9.30;99.90;;;;;;4951106;28;20208;-59
2021/12/15 14:18:24;;;;;;;30.63;14.17;;;9.30;99.90;;;;;;4950852;29;20198;-58
2021/12/15 14:20:55;;;;;;;23.80;12.53;;;9.30;99.90;;;;;;4949876;29;20203;-59